WK1F-2 Weather Reports


Display with metric or nautical units.
time (UTC)temp
F
wind
direction
speed
MPH
gust
MPH
rain 1hr
in
rain 24hr
in
rain mn
in
humidity
%
barometer
mb
20210622215619 75 252 9.0 12.0 0.00 0.00 1.61 96 1013.2
20210622214819 75 234 5.0 12.0 0.00 0.00 1.61 96 1013.3
20210622214019 75 245 8.0 10.0 0.00 0.00 1.61 96 1013.4
20210622213219 75 241 7.0 11.0 0.00 0.00 1.61 96 1013.6
20210622212419 75 235 9.0 11.0 0.00 0.00 1.61 96 1013.6
20210622211619 75 217 9.0 10.0 0.00 0.00 1.61 96 1013.6
20210622210819 75 201 8.0 12.0 0.00 0.00 1.61 96 1013.8
20210622210019 75 211 4.0 11.0 0.00 0.00 1.61 96 1013.8
20210622205219 75 217 8.0 13.0 0.01 0.00 1.61 96 1013.9
20210622204419 75 242 5.0 10.0 0.01 0.00 1.61 96 1014.0
20210622203619 75 228 5.0 11.0 0.01 0.00 1.61 96 1014.2
20210622202819 75 211 5.0 9.0 0.01 0.00 1.61 96 1014.3
20210622202019 74 244 4.0 10.0 0.01 0.00 1.61 96 1014.3
20210622201219 74 199 2.0 10.0 0.03 0.00 1.61 96 1014.4
20210622200419 74 248 3.0 11.0 0.04 0.00 1.61 96 1014.7
20210622195619 74 234 7.0 11.0 0.06 0.00 1.60 96 1014.9
20210622194819 74 254 5.0 10.0 0.08 0.00 1.60 96 1014.8
20210622194019 74 228 3.0 8.0 0.13 0.00 1.60 96 1014.7
20210622193219 74 228 5.0 10.0 0.17 0.00 1.60 96 1014.7
20210622192419 73 230 9.0 11.0 0.21 0.00 1.60 96 1014.6
20210622191619 73 241 6.0 10.0 0.24 0.00 1.59 96 1014.6
20210622190819 73 197 6.0 8.0 0.27 0.00 1.58 96 1014.9
20210622190019 73 216 2.0 12.0 0.30 0.00 1.56 96 1014.9
20210622185219 73 249 0.0 11.0 0.32 0.00 1.53 95 1015.1
20210622184419 73 259 4.0 9.0 0.34 0.00 1.50 95 1015.3
20210622183619 73 255 7.0 9.0 0.42 0.00 1.46 95 1015.5
20210622182819 73 269 8.0 9.0 0.42 0.00 1.41 95 1015.8
20210622182019 73 251 3.0 12.0 0.42 0.00 1.38 95 1016.2
20210622181219 73 280 7.0 12.0 0.41 0.00 1.34 95 1016.5
20210622180419 73 266 4.0 13.0 0.44 0.00 1.29 95 1016.4
20210622175619 73 309 5.0 13.0 0.59 0.00 1.24 95 1016.4
20210622174819 73 272 5.0 16.0 0.64 0.00 1.19 95 1016.3
20210622174019 73 292 8.0 13.0 0.94 0.00 1.12 95 1016.5
20210622173219 73 285 8.0 12.0 1.00 0.00 1.02 94 1016.5
20210622172419 73 269 9.0 13.0 0.97 0.00 0.98 94 1016.3
20210622171619 73 307 7.0 12.0 0.93 0.00 0.94 94 1016.3
20210622170819 73 317 5.0 19.0 0.90 0.00 0.91 93 1016.5
20210622170019 74 272 12.0 17.0 0.81 0.00 0.82 93 1016.3
20210622165219 74 307 9.0 24.0 0.62 0.00 0.63 92 1015.9
20210622164419 75 309 16.0 27.0 0.44 0.00 0.45 89 1015.7
20210622163619 77 331 16.0 22.0 0.08 0.00 0.09 86 1015.7
20210622162819 79 265 7.0 25.0 0.00 0.00 0.01 78 1015.9
20210622162019 83 309 12.0 14.0 0.00 0.00 0.01 76 1015.7
20210622161219 84 296 1.0 17.0 0.00 0.00 0.01 77 1015.3
20210622160419 84 248 10.0 15.0 0.00 0.00 0.01 78 1015.1
20210622155619 84 254 7.0 15.0 0.00 0.00 0.01 77 1015.1
20210622154818 84 297 7.0 14.0 0.00 0.00 0.01 77 1015.1
20210622154018 84 272 11.0 15.0 0.00 0.00 0.01 76 1015.0
20210622153218 84 217 8.0 22.0 0.00 0.00 0.01 76 1014.8
20210622152418 85 258 9.0 19.0 0.00 0.00 0.01 75 1014.8
20210622151618 84 252 10.0 17.0 0.00 0.00 0.01 77 1014.7
20210622150818 83 234 7.0 15.0 0.00 0.00 0.01 77 1014.8
20210622150018 83 211 7.0 16.0 0.00 0.00 0.01 79 1015.2
20210622145218 82 249 8.0 15.0 0.00 0.00 0.01 78 1015.3
20210622144418 82 224 3.0 16.0 0.00 0.00 0.01 77 1015.3
20210622143618 82 200 10.0 16.0 0.00 0.00 0.01 77 1015.2
20210622142818 82 259 8.0 16.0 0.00 0.00 0.01 78 1015.3
20210622142018 82 227 7.0 18.0 0.00 0.00 0.01 78 1015.1
20210622141218 82 214 13.0 9.0 0.00 0.00 0.01 80 1015.0
20210622140418 81 190 1.0 12.0 0.00 0.00 0.01 81 1014.9
20210622135618 81 227 3.0 16.0 0.00 0.00 0.01 82 1014.8
20210622134818 81 216 6.0 17.0 0.00 0.00 0.01 82 1014.9
20210622134018 81 255 9.0 14.0 0.00 0.00 0.01 84 1015.0
20210622133218 80 242 6.0 15.0 0.00 0.00 0.01 86 1015.1
20210622132418 79 225 9.0 13.0 0.00 0.00 0.01 87 1015.3
20210622131618 78 251 9.0 13.0 0.00 0.00 0.01 90 1015.3
20210622130818 78 237 3.0 10.0 0.00 0.00 0.01 91 1015.1
20210622130018 77 217 7.0 9.0 0.00 0.00 0.01 93 1015.0
20210622125218 76 180 4.0 9.0 0.00 0.00 0.01 94 1015.1
20210622124418 76 211 3.0 9.0 0.00 0.00 0.01 94 1015.1
20210622123618 75 196 3.0 8.0 0.00 0.00 0.01 95 1015.2
20210622122818 75 200 7.0 8.0 0.00 0.00 0.01 95 1015.2
20210622122018 75 204 3.0 6.0 0.00 0.00 0.01 95 1015.0
20210622121218 75 228 3.0 8.0 0.00 0.00 0.01 95 1015.1
20210622120418 74 211 0.0 7.0 0.00 0.00 0.01 95 1014.9
20210622115618 74 228 5.0 5.0 0.00 0.00 0.01 95 1014.7
20210622114818 74 227 2.0 5.0 0.00 0.00 0.01 95 1014.5
20210622114018 74 170 0.0 4.0 0.00 0.00 0.01 95 1014.4
20210622113218 74 245 0.0 0.0 0.00 0.00 0.01 95 1014.4
20210622112418 74 251 0.0 0.0 0.00 0.00 0.01 95 1014.4
20210622111618 74 251 0.0 0.0 0.00 0.00 0.01 95 1014.5
20210622110818 73 251 0.0 0.0 0.00 0.00 0.01 95 1014.5
20210622110018 73 251 0.0 0.0 0.00 0.00 0.01 95 1014.6
20210622105218 73 251 0.0 0.0 0.00 0.00 0.01 95 1014.5
20210622104418 73 251 0.0 0.0 0.00 0.00 0.01 95 1014.6
20210622103618 73 186 0.0 4.0 0.00 0.00 0.01 95 1014.7
20210622102818 73 273 3.0 4.0 0.00 0.00 0.01 95 1014.7
20210622102018 74 299 0.0 2.0 0.00 0.00 0.01 95 1014.6
20210622101218 74 282 2.0 3.0 0.00 0.00 0.01 95 1014.5
20210622100418 74 278 0.0 4.0 0.00 0.00 0.01 95 1014.5
20210622095618 74 295 0.0 4.0 0.00 0.00 0.01 95 1014.4
20210622094818 74 327 2.0 0.0 0.00 0.00 0.01 94 1014.4
20210622094018 74 348 0.0 0.0 0.00 0.00 0.01 94 1014.3
20210622093218 74 348 0.0 4.0 0.00 0.00 0.01 94 1014.2
20210622092418 74 304 3.0 4.0 0.00 0.00 0.01 94 1014.3
20210622091618 74 292 0.0 3.0 0.00 0.00 0.01 94 1014.1
20210622090818 74 244 1.0 0.0 0.00 0.00 0.01 94 1014.0
20210622090018 74 244 0.0 0.0 0.00 0.00 0.01 94 1014.2
20210622085218 74 244 0.0 0.0 0.00 0.00 0.01 94 1014.1
20210622084418 74 244 0.0 0.0 0.00 0.00 0.01 94 1014.1
20210622083618 75 244 0.0 0.0 0.00 0.00 0.01 94 1014.1
20210622082818 75 244 0.0 0.0 0.00 0.00 0.01 94 1014.1
20210622082018 75 244 0.0 0.0 0.00 0.00 0.01 94 1014.3
20210622081218 75 208 0.0 6.0 0.00 0.00 0.01 94 1014.4
20210622080418 75 220 4.0 6.0 0.00 0.00 0.01 94 1014.5
20210622075618 75 218 3.0 7.0 0.00 0.00 0.01 94 1014.6
20210622074818 74 186 1.0 10.0 0.00 0.00 0.01 94 1014.6
20210622074018 74 207 4.0 9.0 0.00 0.00 0.01 94 1014.5
20210622073218 74 175 7.0 12.0 0.00 0.00 0.01 95 1014.5
20210622072418 74 220 6.0 12.0 0.00 0.00 0.01 95 1014.7
20210622071618 74 169 2.0 9.0 0.00 0.00 0.01 95 1014.8
20210622070818 74 207 6.0 9.0 0.00 0.00 0.01 95 1014.8
20210622070018 74 196 3.0 10.0 0.00 0.00 0.01 95 1014.8
20210622065218 74 183 6.0 12.0 0.00 0.00 0.01 95 1015.0
20210622064418 74 214 5.0 9.0 0.00 0.00 0.01 95 1015.2
20210622063618 74 214 6.0 8.0 0.00 0.00 0.01 95 1015.4
20210622062818 73 189 6.0 7.0 0.00 0.00 0.01 95 1015.7
20210622062018 73 199 6.0 7.0 0.00 0.00 0.01 95 1016.0
20210622061218 73 186 4.0 7.0 0.00 0.00 0.01 95 1016.0
20210622060418 73 199 4.0 8.0 0.00 0.00 0.01 95 1016.2
20210622055618 73 211 6.0 9.0 0.00 0.00 0.01 95 1016.4
20210622054818 73 214 4.0 8.0 0.00 0.00 0.01 95 1016.5
20210622054018 73 182 3.0 10.0 0.00 0.00 0.01 95 1016.7
20210622053218 73 175 3.0 7.0 0.00 0.00 0.01 95 1016.7
20210622052418 73 218 3.0 7.0 0.00 0.00 0.01 94 1016.5
20210622051618 73 238 3.0 7.0 0.00 0.00 0.01 94 1016.4
20210622050818 73 213 3.0 7.0 0.00 0.00 0.01 94 1016.5
20210622050018 73 227 3.0 7.0 0.01 0.00 0.01 94 1016.3
20210622045218 73 234 4.0 8.0 0.01 0.00 0.01 94 1016.6
20210622044418 73 234 3.0 4.0 0.01 0.00 0.01 94 1016.7
20210622043618 73 251 3.0 7.0 0.01 0.00 0.01 94 1017.0
20210622042818 74 221 3.0 7.0 0.01 0.00 0.01 94 1017.1
20210622042018 74 214 3.0 7.0 0.01 0.00 0.01 94 1017.2
20210622041218 74 217 3.0 7.0 0.01 0.00 0.01 94 1017.4
20210622040418 74 220 5.0 8.0 0.00 0.00 0.00 93 1017.4
20210622035618 74 196 4.0 8.0 0.00 0.00 0.14 93 1017.5
20210622034818 74 187 4.0 7.0 0.00 0.00 0.14 93 1017.6
20210622034018 73 237 3.0 7.0 0.00 0.00 0.14 93 1017.8
20210622033218 73 193 5.0 5.0 0.00 0.00 0.14 93 1017.9
20210622032418 73 225 3.0 6.0 0.00 0.00 0.14 93 1018.0
20210622031618 73 204 4.0 5.0 0.00 0.00 0.14 93 1018.0
20210622030818 73 231 3.0 6.0 0.00 0.00 0.14 93 1017.9
20210622030018 74 225 3.0 6.0 0.00 0.00 0.14 93 1017.9
20210622025218 74 217 2.0 6.0 0.00 0.00 0.14 93 1017.8
20210622024418 74 227 4.0 7.0 0.00 0.00 0.14 93 1017.7
20210622023618 74 241 5.0 6.0 0.00 0.00 0.14 92 1017.7
20210622022818 74 254 4.0 7.0 0.00 0.00 0.14 92 1017.6
20210622022018 74 223 3.0 7.0 0.00 0.00 0.14 92 1017.5
20210622021218 74 224 6.0 8.0 0.00 0.00 0.14 92 1017.4
20210622020418 74 207 3.0 9.0 0.00 0.00 0.14 92 1017.2
20210622015618 74 254 3.0 8.0 0.00 0.00 0.14 92 1017.0
20210622014818 74 247 5.0 9.0 0.00 0.00 0.14 92 1016.8
20210622014018 75 252 5.0 9.0 0.00 0.00 0.14 91 1016.7
20210622013218 75 268 6.0 9.0 0.00 0.00 0.14 91 1016.7
20210622012418 75 200 2.0 10.0 0.00 0.00 0.14 91 1016.5
20210622011618 75 221 3.0 8.0 0.00 0.00 0.14 91 1016.3
20210622010818 75 237 4.0 7.0 0.00 0.00 0.14 91 1015.9
20210622010018 75 235 3.0 8.0 0.00 0.00 0.14 90 1015.7
20210622005218 75 255 7.0 10.0 0.00 0.00 0.14 90 1015.6
20210622004418 75 220 4.0 9.0 0.00 0.00 0.14 90 1015.5
20210622003618 75 282 5.0 9.0 0.00 0.00 0.14 90 1015.3
20210622002818 75 262 2.0 8.0 0.00 0.00 0.14 90 1015.2
20210622002018 76 220 5.0 6.0 0.00 0.00 0.14 90 1015.0
20210622001218 76 234 3.0 7.0 0.00 0.00 0.14 89 1014.8
20210622000418 76 271 4.0 5.0 0.00 0.00 0.14 89 1014.7
20210621235618 76 245 3.0 7.0 0.00 0.00 0.14 89 1014.5
20210621234818 76 231 3.0 7.0 0.00 0.00 0.14 89 1014.5
20210621234018 76 223 5.0 8.0 0.00 0.00 0.14 89 1014.5
20210621233218 76 276 5.0 7.0 0.00 0.00 0.14 88 1014.7
20210621232418 76 221 1.0 9.0 0.00 0.00 0.14 88 1014.7
20210621231618 77 259 7.0 13.0 0.00 0.00 0.14 88 1014.7
20210621230818 77 238 5.0 11.0 0.00 0.00 0.14 88 1014.9
20210621230018 77 241 8.0 14.0 0.00 0.00 0.14 87 1015.2
20210621225218 77 255 5.0 16.0 0.00 0.00 0.14 87 1015.2
20210621224418 77 251 13.0 12.0 0.00 0.00 0.14 87 1015.1
20210621223618 77 244 6.0 10.0 0.00 0.00 0.14 88 1015.1
20210621222818 77 234 4.0 10.0 0.00 0.00 0.14 88 1015.1
20210621222018 77 245 4.0 9.0 0.00 0.00 0.14 88 1015.1
20210621221218 77 268 1.0 12.0 0.00 0.00 0.14 88 1015.2
20210621220418 77 208 5.0 15.0 0.00 0.00 0.14 88 1015.2